Time;durP1;ratioP1;P1;durP2;ratioP2;P2;SDS_P1;SDS_P2;PMS_P1;PMS_P2;Temp;Humidity;BMP_temperature;BMP_pressure;BME280_temperature;BME280_humidity;BME280_pressure;Samples;Min_cycle;Max_cycle;Signal;HPM_P1;HPM_P2
2022/07/06 00:02:25;;;;;;;;;;;;;;;18.80;77.90;99611.19;4958804;29;20018;-68
2022/07/06 00:04:53;;;;;;;;;;;;;;;18.83;78.10;99621.44;4958930;29;19923;-68
2022/07/06 00:07:22;;;;;;;;;;;;;;;18.75;78.23;99624.28;4958822;29;19931;-68
2022/07/06 00:09:51;;;;;;;;;;;;;;;18.81;78.34;99623.25;4958697;29;20025;-68
2022/07/06 00:12:19;;;;;;;;;;;;;;;18.88;78.23;99624.72;4958799;29;19923;-68
2022/07/06 00:14:48;;;;;;;;;;;;;;;18.90;78.38;99625.50;4958719;29;19923;-67
2022/07/06 00:17:17;;;;;;;;;;;;;;;18.88;78.33;99624.72;4958990;29;19926;-68
2022/07/06 00:19:47;;;;;;;;;;;;;;;18.90;78.39;99617.72;4958602;29;19932;-68
2022/07/06 00:22:15;;;;;;;;;;;;;;;18.96;78.44;99613.19;4958695;29;19978;-68
2022/07/06 00:24:44;;;;;;;;;;;;;;;19.05;78.36;99612.03;4958441;29;19922;-68
2022/07/06 00:27:12;;;;;;;;;;;;;;;19.13;77.92;99600.47;4958484;29;19929;-68
2022/07/06 00:29:43;;;;;;;;;;;;;;;19.17;77.74;99606.41;4958423;29;20009;-69
2022/07/06 00:32:12;;;;;;;;;;;;;;;19.23;77.34;99611.34;4958671;29;20431;-68
2022/07/06 00:34:40;;;;;;;;;;;;;;;19.26;77.22;99616.41;4958279;28;19922;-68
2022/07/06 00:37:15;;;;;;;;;;;;;;;19.28;77.08;99609.44;4958564;29;19926;-68
2022/07/06 00:39:43;;;;;;;;;;;;;;;19.28;76.54;99610.28;4958711;29;19929;-68
2022/07/06 00:42:12;;;;;;;;;;;;;;;19.29;76.57;99611.13;4958484;29;19923;-68
2022/07/06 00:44:41;;;;;;;;;;;;;;;19.31;76.40;99610.16;4958208;29;19930;-70
2022/07/06 00:47:09;;;;;;;;;;;;;;;19.37;76.36;99622.06;4958391;29;20432;-69
2022/07/06 00:52:17;;;;;;;;;;;;;;;19.37;75.96;99599.59;4958041;29;19922;-68
2022/07/06 00:54:46;;;;;;;;;;;;;;;19.35;75.87;99595.34;4958838;29;19922;-69
2022/07/06 00:57:15;;;;;;;;;;;;;;;19.34;75.67;99593.66;4958245;29;19922;-68
2022/07/06 00:59:43;;;;;;;;;;;;;;;19.36;75.97;99584.16;4957795;29;19929;-68
2022/07/06 01:02:12;;;;;;;;;;;;;;;19.34;75.98;99589.31;4957781;29;19929;-68
2022/07/06 01:04:41;;;;;;;;;;;;;;;19.39;75.70;99587.44;4957787;29;20384;-69
2022/07/06 01:07:09;;;;;;;;;;;;;;;19.43;75.68;99587.34;4958075;29;20013;-68
2022/07/06 01:09:40;;;;;;;;;;;;;;;19.46;75.60;99598.41;4940975;29;19922;-68
2022/07/06 01:12:08;;;;;;;;;;;;;;;19.46;75.43;99589.81;4958030;29;19922;-68
2022/07/06 01:14:37;;;;;;;;;;;;;;;19.43;75.38;99588.19;4940888;29;19926;-68
2022/07/06 01:17:07;;;;;;;;;;;;;;;19.46;75.35;99592.41;4957608;29;19948;-68
2022/07/06 01:19:36;;;;;;;;;;;;;;;19.42;75.35;99591.66;4957539;29;19945;-68
2022/07/06 01:22:06;;;;;;;;;;;;;;;19.46;75.25;99590.63;4957444;29;19922;-68
2022/07/06 01:24:36;;;;;;;;;;;;;;;19.42;75.10;99596.84;4957661;29;20021;-68
2022/07/06 01:27:04;;;;;;;;;;;;;;;19.34;75.45;99606.59;4957703;28;19945;-68
2022/07/06 01:29:33;;;;;;;;;;;;;;;19.28;75.24;99606.84;4957381;29;20005;-67
2022/07/06 01:32:02;;;;;;;;;;;;;;;19.14;75.39;99619.44;4940513;29;19958;-67
2022/07/06 01:34:31;;;;;;;;;;;;;;;19.05;75.63;99612.03;4957149;29;19972;-68
2022/07/06 01:36:59;;;;;;;;;;;;;;;18.86;76.21;99623.94;4957493;29;19969;-68
2022/07/06 01:39:32;;;;;;;;;;;;;;;18.70;76.33;99624.44;4957442;29;20319;-68
2022/07/06 01:42:00;;;;;;;;;;;;;;;18.48;76.88;99620.03;4940121;29;19926;-68
2022/07/06 01:44:29;;;;;;;;;;;;;;;18.38;77.11;99624.66;4957197;29;20280;-68
2022/07/06 01:47:00;;;;;;;;;;;;;;;18.45;77.56;99615.78;4939787;29;19965;-68
2022/07/06 01:49:29;;;;;;;;;;;;;;;18.40;77.42;99624.63;4956955;29;20395;-68
2022/07/06 01:51:58;;;;;;;;;;;;;;;18.43;77.71;99622.75;4940089;29;20377;-68
2022/07/06 01:54:26;;;;;;;;;;;;;;;18.42;77.57;99626.25;4940044;29;19993;-68
2022/07/06 01:56:56;;;;;;;;;;;;;;;18.38;77.60;99631.59;4956996;29;19954;-68
2022/07/06 01:59:26;;;;;;;;;;;;;;;18.28;77.59;99633.63;4939822;29;19923;-68
2022/07/06 02:01:55;;;;;;;;;;;;;;;18.17;77.65;99630.53;4939981;29;19974;-68
2022/07/06 02:04:24;;;;;;;;;;;;;;;18.10;77.85;99629.03;4956615;29;20376;-68
2022/07/06 02:06:53;;;;;;;;;;;;;;;17.88;78.19;99633.19;4956676;29;19973;-68
2022/07/06 02:09:22;;;;;;;;;;;;;;;17.72;78.44;99637.13;4939842;29;20288;-67
2022/07/06 02:11:50;;;;;;;;;;;;;;;17.67;78.81;99634.69;4956571;29;19922;-68
2022/07/06 02:14:20;;;;;;;;;;;;;;;17.68;78.88;99630.38;4956936;29;20360;-67
2022/07/06 02:16:49;;;;;;;;;;;;;;;17.73;78.75;99638.84;4939500;29;19922;-68
2022/07/06 02:19:19;;;;;;;;;;;;;;;17.71;78.67;99635.44;4939735;29;19922;-68
2022/07/06 02:21:47;;;;;;;;;;;;;;;17.61;78.77;99636.63;4956437;29;20413;-67
2022/07/06 02:24:16;;;;;;;;;;;;;;;17.51;78.85;99640.31;4939657;29;19965;-67
2022/07/06 02:26:45;;;;;;;;;;;;;;;17.37;78.70;99641.56;4956566;29;20028;-67
2022/07/06 02:29:13;;;;;;;;;;;;;;;17.27;79.07;99635.00;4939497;29;19973;-67
2022/07/06 02:31:44;;;;;;;;;;;;;;;17.28;79.12;99635.81;4939440;29;19922;-67
2022/07/06 02:34:13;;;;;;;;;;;;;;;17.43;79.61;99640.53;4939130;29;19923;-68
2022/07/06 02:36:42;;;;;;;;;;;;;;;17.61;79.80;99634.03;4956155;29;19923;-67
2022/07/06 02:39:10;;;;;;;;;;;;;;;17.77;80.00;99637.84;4956136;29;19928;-68
2022/07/06 02:41:41;;;;;;;;;;;;;;;17.93;79.85;99641.63;4956135;29;20013;-68
2022/07/06 02:44:09;;;;;;;;;;;;;;;18.06;79.83;99635.19;4939195;29;19944;-68
2022/07/06 02:46:40;;;;;;;;;;;;;;;18.18;79.84;99629.66;4939164;29;20328;-68
2022/07/06 02:49:10;;;;;;;;;;;;;;;18.27;79.50;99642.25;4955983;29;19926;-68
2022/07/06 02:51:39;;;;;;;;;;;;;;;18.37;79.41;99645.38;4938990;29;19922;-68
2022/07/06 02:54:07;;;;;;;;;;;;;;;18.43;79.13;99648.59;4938888;29;19923;-68
2022/07/06 02:56:36;;;;;;;;;;;;;;;18.48;78.92;99646.75;4955749;28;19923;-68
2022/07/06 02:59:05;;;;;;;;;;;;;;;18.52;78.46;99648.31;4955413;29;20440;-68
2022/07/06 03:01:41;;;;;;;;;;;;;;;18.44;78.21;99650.31;4955901;29;20009;-67
2022/07/06 03:04:11;;;;;;;;;;;;;;;18.39;78.05;99657.38;4955739;29;19929;-67
2022/07/06 03:06:39;;;;;;;;;;;;;;;18.31;78.08;99661.94;4956298;29;20296;-67
2022/07/06 03:09:08;;;;;;;;;;;;;;;18.27;78.10;99660.34;4939064;29;19931;-68
2022/07/06 03:11:38;;;;;;;;;;;;;;;18.25;78.07;99659.56;4922934;29;19933;-68
2022/07/06 03:14:07;;;;;;;;;;;;;;;18.22;78.21;99669.97;4938961;29;19922;-68
2022/07/06 03:16:38;;;;;;;;;;;;;;;18.21;78.09;99672.63;4939058;29;20388;-67
2022/07/06 03:19:08;;;;;;;;;;;;;;;18.21;78.26;99673.44;4938947;29;19922;-68
2022/07/06 03:21:38;;;;;;;;;;;;;;;18.20;78.10;99670.91;4955965;29;19978;-68
2022/07/06 03:24:07;;;;;;;;;;;;;;;18.23;77.95;99671.69;4955655;29;19977;-68
2022/07/06 03:26:36;;;;;;;;;;;;;;;18.26;78.15;99666.41;4938717;29;19922;-69
2022/07/06 03:29:05;;;;;;;;;;;;;;;18.29;78.00;99665.47;4938915;29;19922;-68
2022/07/06 03:31:35;;;;;;;;;;;;;;;18.33;77.77;99667.06;4938883;29;19929;-68
2022/07/06 03:34:03;;;;;;;;;;;;;;;18.37;77.65;99669.50;4938499;29;20298;-68
2022/07/06 03:36:32;;;;;;;;;;;;;;;18.45;77.86;99671.84;4955481;29;19970;-69
2022/07/06 03:39:08;;;;;;;;;;;;;;;18.57;77.33;99667.13;4955817;29;20384;-68
2022/07/06 03:41:38;;;;;;;;;;;;;;;18.66;77.00;99661.66;4956009;29;19923;-68
2022/07/06 03:44:08;;;;;;;;;;;;;;;18.71;76.77;99664.91;4938714;29;20396;-69
2022/07/06 03:46:37;;;;;;;;;;;;;;;18.76;76.85;99662.19;4938268;29;19922;-68
2022/07/06 03:49:07;;;;;;;;;;;;;;;18.76;76.62;99659.59;4938409;29;19973;-68
2022/07/06 03:51:36;;;;;;;;;;;;;;;18.78;76.69;99659.53;4938361;29;20498;-68
2022/07/06 03:54:04;;;;;;;;;;;;;;;18.83;76.46;99662.81;4938342;29;19922;-68
2022/07/06 03:56:34;;;;;;;;;;;;;;;18.90;76.18;99664.28;4938381;29;19974;-68
2022/07/06 03:59:15;;;;;;;;;;;;;;;18.96;75.90;99664.06;4938373;29;20353;-69
2022/07/06 04:01:44;;;;;;;;;;;;;;;18.98;75.75;99672.66;4938683;29;19926;-68
2022/07/06 04:04:14;;;;;;;;;;;;;;;19.05;75.70;99668.94;4938591;29;19922;-69
2022/07/06 04:06:46;;;;;;;;;;;;;;;19.07;75.48;99667.13;4955346;29;19922;-69
2022/07/06 04:09:15;;;;;;;;;;;;;;;19.13;75.38;99657.41;4939907;29;19973;-69
2022/07/06 04:11:45;;;;;;;;;;;;;;;19.17;75.01;99658.16;4958735;29;19953;-68
2022/07/06 04:14:14;;;;;;;;;;;;;;;19.21;75.04;99665.75;4959363;29;19986;-68
2022/07/06 04:16:43;;;;;;;;;;;;;;;19.28;75.13;99658.59;4941931;29;19926;-69
2022/07/06 04:19:12;;;;;;;;;;;;;;;19.34;74.75;99663.53;4958560;29;19923;-69
2022/07/06 04:21:41;;;;;;;;;;;;;;;19.34;74.64;99666.97;4958597;29;19956;-68
2022/07/06 04:24:10;;;;;;;;;;;;;;;19.41;74.78;99670.25;4958818;29;19935;-69
2022/07/06 04:26:39;;;;;;;;;;;;;;;19.50;74.36;99666.44;4941682;29;19933;-68
2022/07/06 04:29:09;;;;;;;;;;;;;;;19.57;74.27;99666.19;4941317;29;19922;-69
2022/07/06 04:31:38;;;;;;;;;;;;;;;19.69;74.03;99663.13;4958509;29;19922;-70
2022/07/06 04:34:07;;;;;;;;;;;;;;;19.77;73.45;99661.06;4958369;29;19923;-69
2022/07/06 04:36:37;;;;;;;;;;;;;;;19.80;72.73;99666.13;4941523;29;19926;-69
2022/07/06 04:39:06;;;;;;;;;;;;;;;19.88;72.25;99668.44;4941443;29;20277;-69
2022/07/06 04:41:35;;;;;;;;;;;;;;;20.01;71.89;99672.25;4941209;29;19922;-69
2022/07/06 04:44:04;;;;;;;;;;;;;;;20.14;71.36;99670.84;4941061;29;19973;-69
2022/07/06 04:46:35;;;;;;;;;;;;;;;20.25;70.87;99673.06;4941119;29;19923;-69
2022/07/06 04:49:04;;;;;;;;;;;;;;;20.30;70.08;99666.75;4958090;29;20030;-69
2022/07/06 04:51:32;;;;;;;;;;;;;;;20.42;69.55;99665.44;4941506;29;19968;-69
2022/07/06 04:54:04;;;;;;;;;;;;;;;20.52;69.27;99666.72;4940929;29;19922;-69
2022/07/06 04:56:34;;;;;;;;;;;;;;;20.67;69.24;99671.28;4941224;29;19923;-69
2022/07/06 04:59:03;;;;;;;;;;;;;;;20.80;68.59;99672.47;4940689;29;19922;-70
2022/07/06 05:01:32;;;;;;;;;;;;;;;20.89;68.02;99671.22;4941129;29;19989;-69
2022/07/06 05:04:02;;;;;;;;;;;;;;;20.95;67.51;99676.97;4957823;29;20364;-70
2022/07/06 05:06:32;;;;;;;;;;;;;;;21.03;67.49;99674.06;4940846;29;19922;-69
2022/07/06 05:09:02;;;;;;;;;;;;;;;21.11;67.11;99665.09;4940630;29;19923;-68
2022/07/06 05:11:32;;;;;;;;;;;;;;;21.25;66.64;99660.13;4940971;29;20013;-68
2022/07/06 05:14:02;;;;;;;;;;;;;;;21.33;65.97;99652.81;4940595;29;19929;-68
2022/07/06 05:16:31;;;;;;;;;;;;;;;21.42;65.56;99661.97;4957940;29;20366;-70
2022/07/06 05:19:00;;;;;;;;;;;;;;;21.52;64.92;99659.78;4940695;29;19949;-69
2022/07/06 05:21:31;;;;;;;;;;;;;;;21.56;64.74;99659.56;4939889;29;19950;-69
2022/07/06 05:23:59;;;;;;;;;;;;;;;21.57;64.22;99655.22;4957513;29;19974;-68
2022/07/06 05:26:28;;;;;;;;;;;;;;;21.58;63.83;99652.56;4957346;29;19970;-70
2022/07/06 05:28:57;;;;;;;;;;;;;;;21.63;63.51;99660.13;4940289;29;19954;-68
2022/07/06 05:31:25;;;;;;;;;;;;;;;21.70;63.35;99656.34;4940239;29;19922;-69
2022/07/06 05:33:54;;;;;;;;;;;;;;;21.72;63.15;99670.09;4940190;29;19923;-70
2022/07/06 05:36:23;;;;;;;;;;;;;;;21.77;63.23;99660.34;4957231;29;20360;-68
2022/07/06 05:38:53;;;;;;;;;;;;;;;21.79;63.13;99661.09;4940074;29;19972;-69
2022/07/06 05:41:21;;;;;;;;;;;;;;;21.81;62.96;99664.50;4957211;29;19922;-71
2022/07/06 05:43:55;;;;;;;;;;;;;;;21.83;62.79;99673.06;4957248;29;19922;-71
2022/07/06 05:46:24;;;;;;;;;;;;;;;21.84;62.63;99670.41;4940201;29;19927;-70
2022/07/06 05:51:31;;;;;;;;;;;;;;;21.88;62.18;99665.91;4952769;28;20377;-71
2022/07/06 05:54:01;;;;;;;;;;;;;;;21.96;62.61;99668.97;4920815;29;20416;-70
2022/07/06 05:56:30;;;;;;;;;;;;;;;22.03;62.31;99675.56;4938066;29;20021;-70
2022/07/06 05:59:00;;;;;;;;;;;;;;;22.13;62.13;99674.22;4915440;29;19954;-71
2022/07/06 06:01:31;;;;;;;;;;;;;;;22.25;61.91;99683.19;4917720;29;19927;-70
2022/07/06 06:04:09;;;;;;;;;;;;;;;22.39;61.92;99679.00;4917549;29;19923;-69
2022/07/06 06:06:38;;;;;;;;;;;;;;;22.46;61.29;99685.59;4917524;29;20347;-71
2022/07/06 06:09:08;;;;;;;;;;;;;;;22.47;61.03;99687.28;4918412;29;19923;-70
2022/07/06 06:11:36;;;;;;;;;;;;;;;22.50;60.73;99681.94;4917590;29;19923;-68
2022/07/06 06:14:05;;;;;;;;;;;;;;;22.53;60.63;99684.38;4948807;29;20457;-69
2022/07/06 06:16:35;;;;;;;;;;;;;;;22.62;60.69;99686.56;4948913;29;19930;-68
2022/07/06 06:19:03;;;;;;;;;;;;;;;22.73;60.49;99688.63;4916863;29;20442;-71
2022/07/06 06:21:32;;;;;;;;;;;;;;;22.74;60.01;99692.06;4918542;29;20296;-69
2022/07/06 06:24:00;;;;;;;;;;;;;;;22.85;59.94;99692.38;4918036;29;19969;-70
2022/07/06 06:26:32;;;;;;;;;;;;;;;22.97;59.66;99696.94;4918214;29;19927;-69
2022/07/06 06:29:00;;;;;;;;;;;;;;;23.01;59.07;99694.09;4918773;29;19927;-71
2022/07/06 06:31:29;;;;;;;;;;;;;;;23.10;58.79;99698.03;4918327;29;19923;-70
2022/07/06 06:33:58;;;;;;;;;;;;;;;23.14;58.54;99699.53;4918536;29;20409;-70
2022/07/06 06:36:26;;;;;;;;;;;;;;;23.27;58.63;99711.03;4917985;29;19930;-71
2022/07/06 06:38:55;;;;;;;;;;;;;;;23.36;58.23;99707.97;4918025;29;20385;-69
2022/07/06 06:41:24;;;;;;;;;;;;;;;23.42;57.85;99707.63;4918126;29;19975;-70
2022/07/06 06:43:54;;;;;;;;;;;;;;;23.45;57.54;99715.28;4917899;29;19923;-70
2022/07/06 06:46:29;;;;;;;;;;;;;;;23.51;57.31;99712.38;4917958;29;20014;-69
2022/07/06 06:48:57;;;;;;;;;;;;;;;23.50;56.76;99733.28;4916646;29;19962;-70
2022/07/06 06:51:26;;;;;;;;;;;;;;;23.52;56.66;99721.84;4918212;29;19988;-69
2022/07/06 06:53:54;;;;;;;;;;;;;;;23.66;56.69;99727.16;4918031;29;19970;-69
2022/07/06 06:56:23;;;;;;;;;;;;;;;23.78;56.49;99730.88;4918079;29;20010;-70
2022/07/06 06:58:51;;;;;;;;;;;;;;;23.82;56.00;99732.41;4922752;29;20365;-69
2022/07/06 07:01:41;;;;;;;;;;;;;;;23.89;55.71;99736.38;4936912;29;19926;-70
2022/07/06 07:04:10;;;;;;;;;;;;;;;23.96;55.54;99740.34;4924274;29;20022;-69
2022/07/06 07:06:38;;;;;;;;;;;;;;;23.99;55.46;99743.59;4917485;29;19998;-70
2022/07/06 07:09:07;;;;;;;;;;;;;;;24.10;55.21;99739.59;4930208;29;19929;-69
2022/07/06 07:11:36;;;;;;;;;;;;;;;24.16;55.29;99742.75;4936562;29;19935;-69
2022/07/06 07:14:04;;;;;;;;;;;;;;;24.21;54.78;99738.06;4936905;29;19927;-69
2022/07/06 07:16:33;;;;;;;;;;;;;;;24.23;54.38;99738.84;4936969;29;19945;-70
2022/07/06 07:19:03;;;;;;;;;;;;;;;24.31;54.46;99738.41;4936399;29;19926;-69
2022/07/06 07:21:31;;;;;;;;;;;;;;;24.43;54.19;99737.72;4936899;29;20298;-70
2022/07/06 07:24:00;;;;;;;;;;;;;;;24.52;53.80;99742.44;4936501;29;19974;-70
2022/07/06 07:26:37;;;;;;;;;;;;;;;24.62;53.62;99744.41;4936460;29;19926;-70
2022/07/06 07:29:05;;;;;;;;;;;;;;;24.64;53.72;99749.56;4935062;29;19929;-69
2022/07/06 07:31:34;;;;;;;;;;;;;;;24.62;52.53;99756.63;4936780;29;19929;-69
2022/07/06 07:34:04;;;;;;;;;;;;;;;24.62;52.46;99754.03;4936489;29;19998;-70
2022/07/06 07:36:32;;;;;;;;;;;;;;;24.67;52.34;99754.59;4933714;29;19957;-69
2022/07/06 07:39:01;;;;;;;;;;;;;;;24.74;52.34;99761.16;4936328;29;19966;-69
2022/07/06 07:41:30;;;;;;;;;;;;;;;24.83;52.46;99762.44;4936211;29;20021;-70
2022/07/06 07:43:58;;;;;;;;;;;;;;;24.88;51.46;99756.03;4938053;29;20021;-69
2022/07/06 07:46:27;;;;;;;;;;;;;;;24.90;50.98;99759.41;4940156;29;20400;-69
2022/07/06 07:48:55;;;;;;;;;;;;;;;24.88;51.54;99766.47;4940359;29;19922;-70
2022/07/06 07:51:26;;;;;;;;;;;;;;;24.94;51.47;99760.88;4923028;29;19970;-69
2022/07/06 07:53:55;;;;;;;;;;;;;;;25.06;50.84;99756.72;4940564;29;19923;-69
2022/07/06 07:56:23;;;;;;;;;;;;;;;25.16;50.76;99763.94;4939925;29;19933;-70
2022/07/06 07:58:52;;;;;;;;;;;;;;;25.29;50.60;99762.25;4939962;29;19927;-70
2022/07/06 08:01:25;;;;;;;;;;;;;;;25.43;50.13;99763.22;4922794;29;19922;-69
2022/07/06 08:03:54;;;;;;;;;;;;;;;25.61;50.07;99767.34;4940065;29;19926;-70
2022/07/06 08:06:23;;;;;;;;;;;;;;;25.60;49.56;99766.50;4939860;29;19956;-70
2022/07/06 08:08:53;;;;;;;;;;;;;;;25.63;49.85;99775.94;4934520;29;20338;-69
2022/07/06 08:11:21;;;;;;;;;;;;;;;25.67;49.59;99777.44;4928784;29;19926;-70
2022/07/06 08:13:50;;;;;;;;;;;;;;;25.71;49.27;99782.41;4928408;29;19922;-68
2022/07/06 08:16:19;;;;;;;;;;;;;;;25.67;48.18;99778.31;4936882;29;19922;-71
2022/07/06 08:18:47;;;;;;;;;;;;;;;25.77;48.27;99774.16;4939539;29;19970;-71
2022/07/06 08:21:16;;;;;;;;;;;;;;;25.80;48.14;99773.13;4939421;29;19923;-69
2022/07/06 08:23:56;;;;;;;;;;;;;;;25.71;46.91;99763.25;4939881;29;20330;-70
2022/07/06 08:26:24;;;;;;;;;;;;;;;25.58;47.55;99775.41;4939737;29;19922;-69
2022/07/06 08:28:53;;;;;;;;;;;;;;;25.64;47.43;99782.88;4939271;28;20017;-69
2022/07/06 08:31:22;;;;;;;;;;;;;;;25.70;46.73;99777.25;4939222;29;19949;-70
2022/07/06 08:34:11;;;;;;;;;;;;;;;25.77;46.71;99783.81;4939097;29;19926;-69
2022/07/06 08:36:40;;;;;;;;;;;;;;;25.85;46.38;99778.94;4939035;29;19929;-68
2022/07/06 08:39:10;;;;;;;;;;;;;;;26.01;46.66;99787.50;4939152;29;19979;-68
2022/07/06 08:41:41;;;;;;;;;;;;;;;26.12;46.27;99779.88;4922490;29;19923;-70
2022/07/06 08:44:10;;;;;;;;;;;;;;;26.27;45.52;99786.75;4939384;29;19927;-70
2022/07/06 08:46:39;;;;;;;;;;;;;;;26.41;44.96;99786.72;4939254;28;19978;-70
2022/07/06 08:49:08;;;;;;;;;;;;;;;26.48;44.98;99788.00;4939191;29;19945;-69
2022/07/06 08:51:37;;;;;;;;;;;;;;;26.47;44.75;99780.22;4939213;29;20428;-69
2022/07/06 08:54:06;;;;;;;;;;;;;;;26.53;44.50;99780.69;4938850;28;19929;-69
2022/07/06 08:56:36;;;;;;;;;;;;;;;26.68;44.84;99784.09;4937707;29;20271;-70
2022/07/06 08:59:08;;;;;;;;;;;;;;;26.70;44.43;99782.22;4937323;29;19922;-69
2022/07/06 09:01:37;;;;;;;;;;;;;;;26.79;44.35;99786.88;4938698;29;19934;-68
2022/07/06 09:04:07;;;;;;;;;;;;;;;26.96;43.44;99773.53;4934335;29;20375;-70
2022/07/06 09:06:36;;;;;;;;;;;;;;;27.10;41.96;99780.44;4929174;29;19926;-69
2022/07/06 09:09:06;;;;;;;;;;;;;;;27.23;41.66;99787.38;4919482;29;20030;-71
2022/07/06 09:11:37;;;;;;;;;;;;;;;27.22;42.02;99783.09;4934238;29;19950;-69
2022/07/06 09:14:06;;;;;;;;;;;;;;;27.14;41.69;99766.19;4935902;29;19922;-68
2022/07/06 09:16:35;;;;;;;;;;;;;;;27.26;42.21;99771.44;4938424;29;19923;-69
2022/07/06 09:19:08;;;;;;;;;;;;;;;27.44;42.68;99779.88;4938494;29;19974;-68
2022/07/06 09:21:37;;;;;;;;;;;;;;;27.50;41.99;99779.47;4938652;28;19946;-67
2022/07/06 09:24:10;;;;;;;;;;;;;;;27.48;42.07;99785.75;4938201;29;20417;-70
2022/07/06 09:26:42;;;;;;;;;;;;;;;27.44;42.33;99786.91;4938694;29;19923;-67
2022/07/06 09:29:11;;;;;;;;;;;;;;;27.52;42.27;99793.28;4938629;28;20381;-69
2022/07/06 09:31:40;;;;;;;;;;;;;;;27.59;42.09;99778.84;4938050;29;20425;-68
2022/07/06 09:34:11;;;;;;;;;;;;;;;27.74;42.47;99788.25;4938319;29;19922;-68
2022/07/06 09:36:42;;;;;;;;;;;;;;;27.66;41.68;99785.34;4921475;29;20440;-68
2022/07/06 09:39:21;;;;;;;;;;;;;;;27.61;42.03;99783.97;4938133;29;19922;-67
2022/07/06 09:41:52;;;;;;;;;;;;;;;27.71;41.93;99778.00;4938069;29;19922;-68
2022/07/06 09:44:25;;;;;;;;;;;;;;;27.78;41.86;99774.00;4937901;29;19970;-70
2022/07/06 09:46:56;;;;;;;;;;;;;;;27.94;43.77;99781.63;4918636;29;19923;-70
2022/07/06 09:49:25;;;;;;;;;;;;;;;27.97;42.04;99784.03;4926836;29;19929;-69
2022/07/06 09:51:55;;;;;;;;;;;;;;;27.90;41.13;99775.78;4937917;29;19942;-67
2022/07/06 09:54:24;;;;;;;;;;;;;;;27.93;40.99;99770.28;4921026;29;19927;-67
2022/07/06 09:56:55;;;;;;;;;;;;;;;27.93;39.73;99775.53;4921389;29;20284;-68
2022/07/06 09:59:24;;;;;;;;;;;;;;;27.87;39.18;99783.84;4937532;29;19927;-68
2022/07/06 10:01:54;;;;;;;;;;;;;;;27.99;39.19;99781.28;4922538;29;19975;-68
2022/07/06 10:04:23;;;;;;;;;;;;;;;28.20;39.65;99785.03;4918633;29;20018;-69
2022/07/06 10:06:52;;;;;;;;;;;;;;;28.35;39.38;99789.22;4918097;29;19923;-68
2022/07/06 10:09:22;;;;;;;;;;;;;;;28.41;39.92;99786.97;4918327;29;19931;-69
2022/07/06 10:11:52;;;;;;;;;;;;;;;28.32;39.08;99799.94;4917689;29;19930;-68
2022/07/06 10:14:23;;;;;;;;;;;;;;;27.87;39.58;99789.09;4922109;29;19995;-68
2022/07/06 10:16:52;;;;;;;;;;;;;;;27.63;40.39;99796.03;4919908;29;20045;-67
2022/07/06 10:19:22;;;;;;;;;;;;;;;27.50;40.42;99789.13;4937323;28;19944;-68
2022/07/06 10:21:52;;;;;;;;;;;;;;;27.62;40.21;99794.34;4934637;29;19929;-68
2022/07/06 10:24:22;;;;;;;;;;;;;;;27.84;39.38;99797.16;4932863;29;19922;-68
2022/07/06 10:26:50;;;;;;;;;;;;;;;27.80;38.40;99808.84;4930691;29;19927;-69
2022/07/06 10:29:20;;;;;;;;;;;;;;;27.79;38.25;99801.91;4936942;29;19930;-69
2022/07/06 10:31:51;;;;;;;;;;;;;;;27.75;37.85;99804.84;4937459;29;19922;-68
2022/07/06 10:34:20;;;;;;;;;;;;;;;27.62;38.11;99815.34;4937315;29;19923;-67
2022/07/06 10:36:50;;;;;;;;;;;;;;;27.47;38.43;99826.91;4937319;29;19923;-68
2022/07/06 10:42:33;;;;;;;;;;;;;;;26.46;41.39;99857.97;4937333;29;19922;-67
2022/07/06 10:45:02;;;;;;;;;;;;;;;25.82;43.30;99875.88;4930609;29;19929;-68
2022/07/06 10:47:33;;;;;;;;;;;;;;;25.38;44.07;99882.88;4912821;29;19930;-69
2022/07/06 10:50:02;;;;;;;;;;;;;;;24.92;45.26;99893.34;4936819;29;19922;-72
2022/07/06 10:52:43;;;;;;;;;;;;;;;24.65;47.33;99892.22;4936752;29;19922;-68
2022/07/06 10:55:28;;;;;;;;;;;;;;;24.41;49.76;99904.00;4936915;29;20329;-71
2022/07/06 10:57:57;;;;;;;;;;;;;;;23.91;53.61;99911.84;4936780;29;19953;-69
2022/07/06 11:00:26;;;;;;;;;;;;;;;23.39;57.08;99921.44;4936742;29;19922;-70
2022/07/06 11:02:56;;;;;;;;;;;;;;;22.92;59.10;99930.66;4936637;29;19934;-69
2022/07/06 11:05:35;;;;;;;;;;;;;;;22.58;60.25;99939.16;4936947;29;20368;-68
2022/07/06 11:08:24;;;;;;;;;;;;;;;22.15;60.97;99919.41;4936808;29;19927;-68
2022/07/06 11:10:53;;;;;;;;;;;;;;;21.76;61.28;99915.94;4935593;29;19923;-69
2022/07/06 11:13:27;;;;;;;;;;;;;;;21.50;61.68;99931.75;4917865;29;20384;-68
2022/07/06 11:16:01;;;;;;;;;;;;;;;21.34;62.50;99940.16;4917614;29;19927;-69
2022/07/06 11:18:41;;;;;;;;;;;;;;;21.38;62.76;99929.66;4918747;29;20255;-68
2022/07/06 11:21:16;;;;;;;;;;;;;;;21.24;63.09;99932.78;4921809;29;19930;-69
2022/07/06 11:23:47;;;;;;;;;;;;;;;21.18;63.67;99939.09;4921740;29;20369;-67
2022/07/06 11:26:16;;;;;;;;;;;;;;;21.15;64.04;99936.63;4921434;29;20010;-69
2022/07/06 11:28:46;;;;;;;;;;;;;;;21.26;64.42;99929.22;4921305;29;19930;-69
2022/07/06 11:31:16;;;;;;;;;;;;;;;21.43;64.71;99918.16;4933566;29;19929;-69
2022/07/06 11:33:48;;;;;;;;;;;;;;;21.52;64.67;99933.38;4921156;29;19927;-68
2022/07/06 11:36:17;;;;;;;;;;;;;;;21.68;64.41;99929.25;4923327;29;19998;-69
2022/07/06 11:38:46;;;;;;;;;;;;;;;21.81;63.84;99924.38;4934305;29;19934;-68
2022/07/06 11:41:16;;;;;;;;;;;;;;;22.06;63.55;99925.03;4933794;29;19922;-69
2022/07/06 11:43:45;;;;;;;;;;;;;;;22.33;62.91;99918.63;4940154;29;19929;-69
2022/07/06 11:46:24;;;;;;;;;;;;;;;22.56;61.87;99917.56;4940100;29;19923;-69
2022/07/06 11:48:55;;;;;;;;;;;;;;;22.85;60.72;99911.03;4940060;29;19929;-69
2022/07/06 11:51:25;;;;;;;;;;;;;;;23.17;60.11;99912.94;4940032;29;19923;-70
2022/07/06 11:53:56;;;;;;;;;;;;;;;23.33;58.89;99904.31;4940269;29;20361;-69
2022/07/06 11:56:26;;;;;;;;;;;;;;;23.34;58.11;99905.16;4940515;29;20358;-70
2022/07/06 11:58:56;;;;;;;;;;;;;;;23.59;58.04;99900.44;4939555;29;19923;-71
2022/07/06 12:01:25;;;;;;;;;;;;;;;23.75;57.09;99900.53;4940047;29;19926;-70
2022/07/06 12:03:58;;;;;;;;;;;;;;;23.82;56.22;99902.75;4939639;29;19930;-69
2022/07/06 12:06:27;;;;;;;;;;;;;;;23.90;55.79;99905.78;4938008;29;20025;-68
2022/07/06 12:08:56;;;;;;;;;;;;;;;24.10;55.30;99896.09;4920284;29;20014;-70
2022/07/06 12:11:26;;;;;;;;;;;;;;;24.33;54.71;99893.13;4920407;29;20009;-69
2022/07/06 12:13:55;;;;;;;;;;;;;;;24.40;54.12;99889.28;4922240;29;19927;-68
2022/07/06 12:16:30;;;;;;;;;;;;;;;24.38;53.12;99891.09;4907081;29;20365;-69
2022/07/06 12:19:01;;;;;;;;;;;;;;;24.54;52.61;99891.97;4940096;29;19926;-69
2022/07/06 12:21:35;;;;;;;;;;;;;;;24.57;51.50;99887.41;4939486;29;20373;-69
2022/07/06 12:24:07;;;;;;;;;;;;;;;24.51;51.39;99892.13;4939103;29;20293;-70
2022/07/06 12:26:40;;;;;;;;;;;;;;;24.53;51.28;99885.06;4929220;29;19945;-69
2022/07/06 12:29:10;;;;;;;;;;;;;;;24.77;51.46;99882.91;4924529;29;19934;-69
2022/07/06 12:31:39;;;;;;;;;;;;;;;25.03;51.01;99875.28;4935236;29;19930;-69
2022/07/06 12:34:15;;;;;;;;;;;;;;;25.27;50.09;99873.88;4938793;29;20385;-70
2022/07/06 12:36:45;;;;;;;;;;;;;;;25.34;49.33;99873.53;4930143;29;19946;-68
2022/07/06 12:39:14;;;;;;;;;;;;;;;25.50;48.90;99869.13;4939313;29;20017;-68
2022/07/06 12:41:46;;;;;;;;;;;;;;;25.56;47.53;99864.38;4939687;29;19962;-69
2022/07/06 12:44:17;;;;;;;;;;;;;;;25.63;46.97;99864.84;4939161;29;19922;-68
2022/07/06 12:46:46;;;;;;;;;;;;;;;25.66;46.02;99869.91;4939400;29;19923;-68
2022/07/06 12:49:17;;;;;;;;;;;;;;;25.71;45.34;99862.63;4939263;29;19937;-68
2022/07/06 12:51:57;;;;;;;;;;;;;;;25.64;44.31;99861.31;4939298;29;19923;-69
2022/07/06 12:54:26;;;;;;;;;;;;;;;25.69;43.57;99848.81;4938946;29;19926;-69
2022/07/06 12:57:06;;;;;;;;;;;;;;;25.71;43.68;99846.94;4939134;29;19995;-69
2022/07/06 12:59:36;;;;;;;;;;;;;;;25.74;43.50;99841.53;4938513;29;19929;-69
2022/07/06 13:02:05;;;;;;;;;;;;;;;25.83;43.42;99843.56;4938832;29;20025;-68
2022/07/06 13:04:36;;;;;;;;;;;;;;;26.04;43.16;99842.25;4932795;29;19970;-69
2022/07/06 13:07:05;;;;;;;;;;;;;;;26.06;41.32;99843.00;4924880;29;19923;-68
2022/07/06 13:09:35;;;;;;;;;;;;;;;26.16;40.79;99833.69;4921954;29;19945;-69
2022/07/06 13:12:04;;;;;;;;;;;;;;;26.22;40.89;99830.69;4938633;29;20361;-69